createdAt,value
2018-08-25T00:02:11.680Z,1.40
2018-08-25T00:04:38.804Z,1.30
2018-08-25T00:07:05.936Z,1.37
2018-08-25T00:09:33.068Z,1.30
2018-08-25T00:12:00.204Z,1.53
2018-08-25T00:14:27.331Z,1.40
2018-08-25T00:16:54.816Z,1.50
2018-08-25T00:19:22.019Z,1.40
2018-08-25T00:21:49.151Z,1.50
2018-08-25T00:24:16.296Z,1.30
2018-08-25T00:26:43.424Z,1.40
2018-08-25T00:29:10.605Z,1.37
2018-08-25T00:31:37.692Z,1.30
2018-08-25T00:34:04.831Z,1.20
2018-08-25T00:36:32.000Z,1.40
2018-08-25T00:38:59.156Z,1.27
2018-08-25T00:41:26.289Z,1.33
2018-08-25T00:43:53.418Z,1.23
2018-08-25T00:46:20.552Z,1.40
2018-08-25T00:48:47.698Z,1.30
2018-08-25T00:51:14.840Z,1.53
2018-08-25T00:53:41.992Z,1.70
2018-08-25T00:56:09.192Z,1.37
2018-08-25T00:58:36.336Z,1.10
2018-08-25T01:01:03.983Z,1.30
2018-08-25T01:03:31.183Z,1.50
2018-08-25T01:05:58.323Z,1.27
2018-08-25T01:08:25.440Z,1.30
2018-08-25T01:10:52.580Z,1.77
2018-08-25T01:13:19.719Z,1.30
2018-08-25T01:15:46.973Z,1.10
2018-08-25T01:18:13.984Z,1.10
2018-08-25T01:20:41.120Z,1.50
2018-08-25T01:23:08.258Z,1.60
2018-08-25T01:25:35.424Z,1.30
2018-08-25T01:28:02.559Z,1.40
2018-08-25T01:30:29.780Z,1.30
2018-08-25T01:32:56.908Z,1.30
2018-08-25T01:35:24.047Z,1.10
2018-08-25T01:37:51.180Z,1.30
2018-08-25T01:40:18.333Z,1.20
2018-08-25T01:42:45.474Z,1.30
2018-08-25T01:45:12.616Z,1.40
2018-08-25T01:47:39.764Z,1.50
2018-08-25T01:50:06.907Z,1.60
2018-08-25T01:52:34.053Z,1.40
2018-08-25T01:55:01.202Z,1.40
2018-08-25T01:57:28.340Z,1.23
2018-08-25T01:59:55.496Z,1.53
2018-08-25T02:02:22.635Z,1.40
2018-08-25T02:04:50.029Z,1.30
2018-08-25T02:07:17.183Z,1.40
2018-08-25T02:09:44.317Z,1.50
2018-08-25T02:12:11.447Z,1.60
2018-08-25T02:14:38.626Z,1.40
2018-08-25T02:17:05.765Z,1.20
2018-08-25T02:19:32.916Z,1.60
2018-08-25T02:22:00.086Z,1.50
2018-08-25T02:24:27.233Z,1.33
2018-08-25T02:26:54.379Z,1.83
2018-08-25T02:29:21.528Z,1.20
2018-08-25T02:31:48.651Z,1.23
2018-08-25T02:34:15.797Z,1.50
2018-08-25T02:36:43.240Z,1.40
2018-08-25T02:39:12.843Z,1.20
2018-08-25T02:41:40.070Z,1.37
2018-08-25T02:44:07.248Z,1.67
2018-08-25T02:46:34.451Z,1.30
2018-08-25T02:49:01.591Z,1.63
2018-08-25T02:51:28.760Z,2.00
2018-08-25T02:53:55.893Z,1.30
2018-08-25T02:56:23.036Z,1.20
2018-08-25T02:58:50.168Z,1.57
2018-08-25T03:01:17.325Z,1.40
2018-08-25T03:03:44.464Z,1.20
2018-08-25T03:06:11.597Z,1.63
2018-08-25T03:08:38.743Z,1.63
2018-08-25T03:11:05.880Z,1.43
2018-08-25T03:13:33.060Z,1.67
2018-08-25T03:16:00.184Z,1.50
2018-08-25T03:18:27.329Z,1.40
2018-08-25T03:20:54.477Z,1.70
2018-08-25T03:23:21.664Z,1.50
2018-08-25T03:25:48.757Z,1.93
2018-08-25T03:28:15.884Z,1.47
2018-08-25T03:30:43.052Z,1.80
2018-08-25T03:33:10.167Z,1.90
2018-08-25T03:35:37.318Z,1.80
2018-08-25T03:38:04.462Z,2.20
2018-08-25T03:40:31.598Z,1.93
2018-08-25T03:42:58.723Z,1.73
2018-08-25T03:45:25.858Z,2.10
2018-08-25T03:47:52.999Z,1.90
2018-08-25T03:50:20.133Z,2.00
2018-08-25T03:52:47.299Z,2.23
2018-08-25T03:55:14.448Z,2.50
2018-08-25T03:57:41.568Z,1.90
2018-08-25T04:00:08.926Z,2.10
2018-08-25T04:02:36.186Z,1.93
2018-08-25T04:05:03.336Z,2.00
2018-08-25T04:07:30.796Z,2.00
2018-08-25T04:09:58.016Z,1.90
2018-08-25T04:12:25.485Z,1.87
2018-08-25T04:14:52.680Z,2.30
2018-08-25T04:17:19.988Z,2.37
2018-08-25T04:19:47.124Z,2.10
2018-08-25T04:22:14.423Z,2.20
2018-08-25T04:24:41.456Z,1.97
2018-08-25T04:27:08.597Z,2.30
2018-08-25T04:29:35.728Z,1.80
2018-08-25T04:32:03.296Z,1.97
2018-08-25T04:34:30.444Z,2.00
2018-08-25T04:36:57.725Z,2.17
2018-08-25T04:39:24.877Z,1.80
2018-08-25T04:41:52.009Z,1.90
2018-08-25T04:44:19.151Z,2.10
2018-08-25T04:46:46.577Z,2.10
2018-08-25T04:49:13.729Z,2.33
2018-08-25T04:51:40.893Z,2.10
2018-08-25T04:54:08.057Z,2.23
2018-08-25T04:56:35.212Z,2.13
2018-08-25T04:59:02.358Z,2.23
2018-08-25T05:01:29.522Z,2.40
2018-08-25T05:03:56.718Z,1.80
2018-08-25T05:06:24.049Z,2.10
2018-08-25T05:08:51.189Z,1.70
2018-08-25T05:11:18.329Z,1.53
2018-08-25T05:13:45.459Z,1.27
2018-08-25T05:16:12.601Z,1.10
2018-08-25T05:18:39.820Z,1.10
2018-08-25T05:21:06.959Z,1.23
2018-08-25T05:23:34.106Z,1.10
2018-08-25T05:26:01.232Z,1.20
2018-08-25T05:28:28.597Z,1.10
2018-08-25T05:30:55.813Z,1.33
2018-08-25T05:33:23.027Z,1.00
2018-08-25T05:35:50.192Z,1.00
2018-08-25T05:38:17.344Z,0.90
2018-08-25T05:40:44.480Z,1.13
2018-08-25T05:43:11.647Z,1.03
2018-08-25T05:45:38.793Z,1.00
2018-08-25T05:48:06.020Z,1.03
2018-08-25T05:50:33.183Z,1.33
2018-08-25T05:53:00.382Z,1.10
2018-08-25T05:55:27.780Z,1.27
2018-08-25T05:57:54.913Z,1.00
2018-08-25T06:00:22.219Z,1.20
2018-08-25T06:02:49.348Z,1.10
2018-08-25T06:05:16.492Z,1.07
2018-08-25T06:07:43.638Z,1.87
2018-08-25T06:10:10.769Z,1.30
2018-08-25T06:12:37.912Z,1.20
2018-08-25T06:15:05.222Z,1.40
2018-08-25T06:17:32.383Z,1.43
2018-08-25T06:19:59.541Z,1.17
2018-08-25T06:22:30.865Z,1.40
2018-08-25T06:24:58.003Z,1.47
2018-08-25T06:27:25.145Z,1.37
2018-08-25T06:29:52.332Z,1.27
2018-08-25T06:32:19.421Z,1.40
2018-08-25T06:34:46.616Z,1.40
2018-08-25T06:37:13.757Z,1.57
2018-08-25T06:39:40.892Z,1.63
2018-08-25T06:42:12.086Z,1.60
2018-08-25T06:44:39.548Z,1.70
2018-08-25T06:47:06.684Z,1.53
2018-08-25T06:49:33.840Z,2.00
2018-08-25T06:52:00.992Z,1.50
2018-08-25T06:54:28.122Z,1.90
2018-08-25T06:56:55.254Z,1.70
2018-08-25T06:59:22.385Z,1.90
2018-08-25T07:01:49.518Z,2.10
2018-08-25T07:04:16.751Z,1.73
2018-08-25T07:06:43.873Z,2.30
2018-08-25T07:09:12.220Z,2.40
2018-08-25T07:11:39.457Z,2.30
2018-08-25T07:14:06.633Z,2.13
2018-08-25T07:16:33.813Z,2.50
2018-08-25T07:19:01.122Z,2.50
2018-08-25T07:21:28.214Z,2.70
2018-08-25T07:23:55.339Z,3.00
2018-08-25T07:26:22.528Z,3.30
2018-08-25T07:28:49.653Z,3.00
2018-08-25T07:31:16.984Z,3.13
2018-08-25T07:33:44.408Z,2.80
2018-08-25T07:36:11.621Z,3.30
2018-08-25T07:38:38.797Z,2.93
2018-08-25T07:41:05.945Z,2.83
2018-08-25T07:43:33.104Z,3.00
2018-08-25T07:46:00.332Z,3.27
2018-08-25T07:48:27.512Z,4.00
2018-08-25T07:50:55.112Z,3.83
2018-08-25T07:53:22.249Z,3.57
2018-08-25T07:55:49.393Z,3.80
2018-08-25T07:58:16.516Z,3.60
2018-08-25T08:00:43.666Z,4.13
2018-08-25T08:03:10.808Z,3.67
2018-08-25T08:05:38.275Z,3.93
2018-08-25T08:08:05.341Z,3.60
2018-08-25T08:10:32.554Z,3.33
2018-08-25T08:12:59.748Z,3.70
2018-08-25T08:15:26.973Z,4.00
2018-08-25T08:17:54.123Z,3.60
2018-08-25T08:20:21.274Z,3.60
2018-08-25T08:22:48.405Z,4.10
2018-08-25T08:25:15.718Z,3.97
2018-08-25T08:27:42.958Z,3.27
2018-08-25T08:30:10.136Z,2.90
2018-08-25T08:32:37.276Z,2.87
2018-08-25T08:35:04.448Z,3.27
2018-08-25T08:37:31.574Z,2.90
2018-08-25T08:39:58.704Z,2.87
2018-08-25T08:42:25.897Z,3.10
2018-08-25T08:44:52.977Z,2.80
2018-08-25T08:47:20.250Z,2.73
2018-08-25T08:49:47.444Z,2.53
2018-08-25T08:52:14.543Z,2.80
2018-08-25T08:54:41.672Z,2.67
2018-08-25T08:57:08.804Z,2.47
2018-08-25T08:59:35.974Z,2.67
2018-08-25T09:02:03.104Z,2.30
2018-08-25T09:04:30.267Z,2.30
2018-08-25T09:06:57.404Z,2.10
2018-08-25T09:09:24.524Z,2.10
2018-08-25T09:11:51.689Z,2.10
2018-08-25T09:14:18.822Z,1.80
2018-08-25T09:16:45.956Z,1.87
2018-08-25T09:19:15.868Z,1.90
2018-08-25T09:21:42.952Z,1.87
2018-08-25T09:24:10.765Z,1.97
2018-08-25T09:26:38.989Z,1.93
2018-08-25T09:29:06.185Z,1.60
2018-08-25T09:31:33.316Z,1.80
2018-08-25T09:34:00.452Z,2.70
2018-08-25T09:36:27.782Z,1.50
2018-08-25T09:38:54.732Z,1.70
2018-08-25T09:41:22.022Z,1.50
2018-08-25T09:43:49.652Z,1.60
2018-08-25T09:46:16.786Z,1.63
2018-08-25T09:48:43.951Z,1.30
2018-08-25T09:51:11.109Z,1.40
2018-08-25T09:53:38.319Z,1.30
2018-08-25T09:56:05.569Z,1.40
2018-08-25T09:58:32.699Z,1.20
2018-08-25T10:01:06.046Z,1.20
2018-08-25T10:03:34.153Z,1.30
2018-08-25T10:06:01.333Z,1.30
2018-08-25T10:08:28.516Z,1.47
2018-08-25T10:10:55.777Z,1.30
2018-08-25T10:13:22.844Z,1.10
2018-08-25T10:15:49.976Z,1.10
2018-08-25T10:18:17.136Z,1.20
2018-08-25T10:20:44.272Z,1.00
2018-08-25T10:23:11.784Z,1.17
2018-08-25T10:25:38.866Z,1.03
2018-08-25T10:28:06.000Z,1.20
2018-08-25T10:30:33.180Z,1.30
2018-08-25T10:33:00.365Z,1.30
2018-08-25T10:35:27.646Z,1.50
2018-08-25T10:37:59.258Z,1.37
2018-08-25T10:40:26.542Z,1.50
2018-08-25T10:42:53.906Z,1.20
2018-08-25T10:45:21.049Z,1.50
2018-08-25T10:47:48.180Z,1.30
2018-08-25T10:50:15.332Z,1.40
2018-08-25T10:52:42.476Z,1.50
2018-08-25T10:55:09.608Z,1.70
2018-08-25T10:57:36.736Z,1.70
2018-08-25T11:00:04.215Z,2.43
2018-08-25T11:02:31.603Z,2.20
2018-08-25T11:04:58.759Z,2.40
2018-08-25T11:07:25.900Z,2.23
2018-08-25T11:09:53.609Z,1.70
2018-08-25T11:12:20.993Z,2.10
2018-08-25T11:14:48.120Z,2.07
2018-08-25T11:17:15.329Z,2.10
2018-08-25T11:19:42.455Z,2.10
2018-08-25T11:22:09.607Z,2.00
2018-08-25T11:24:36.739Z,2.03
2018-08-25T11:27:03.877Z,1.90
2018-08-25T11:29:31.049Z,1.70
2018-08-25T11:31:58.193Z,1.50
2018-08-25T11:34:25.344Z,2.00
2018-08-25T11:36:53.174Z,2.17
2018-08-25T11:39:20.300Z,2.00
2018-08-25T11:41:47.420Z,1.90
2018-08-25T11:44:14.564Z,1.97
2018-08-25T11:46:41.964Z,1.70
2018-08-25T11:49:09.128Z,2.10
2018-08-25T11:51:36.256Z,1.90
2018-08-25T11:54:03.432Z,1.83
2018-08-25T11:56:30.568Z,1.90
2018-08-25T11:58:57.704Z,2.00
2018-08-25T12:01:24.846Z,1.80
2018-08-25T12:03:52.081Z,2.00
2018-08-25T12:06:19.221Z,1.63
2018-08-25T12:08:46.362Z,2.00
2018-08-25T12:11:14.349Z,1.73
2018-08-25T12:13:41.480Z,1.77
2018-08-25T12:16:08.644Z,1.90
2018-08-25T12:18:35.777Z,1.83
2018-08-25T12:21:02.927Z,1.83
2018-08-25T12:23:30.053Z,1.87
2018-08-25T12:25:57.217Z,1.80
2018-08-25T12:28:24.373Z,2.10
2018-08-25T12:30:51.499Z,1.83
2018-08-25T12:33:18.675Z,1.83
2018-08-25T12:35:45.830Z,2.13
2018-08-25T12:38:12.987Z,1.70
2018-08-25T12:40:40.119Z,1.73
2018-08-25T12:43:07.293Z,1.60
2018-08-25T12:45:34.397Z,1.53
2018-08-25T12:48:01.726Z,1.73
2018-08-25T12:50:29.079Z,1.77
2018-08-25T12:52:56.301Z,1.90
2018-08-25T12:55:24.996Z,1.60
2018-08-25T12:57:52.208Z,1.73
2018-08-25T13:00:19.349Z,1.73
2018-08-25T13:02:46.761Z,1.70
2018-08-25T13:05:13.940Z,1.70
2018-08-25T13:07:41.095Z,2.50
2018-08-25T13:10:08.271Z,2.27
2018-08-25T13:12:35.395Z,2.80
2018-08-25T13:15:02.540Z,2.20
2018-08-25T13:17:29.669Z,2.90
2018-08-25T13:19:56.847Z,2.40
2018-08-25T13:22:23.985Z,2.40
2018-08-25T13:24:51.149Z,3.00
2018-08-25T13:27:18.266Z,2.27
2018-08-25T13:29:45.486Z,2.23
2018-08-25T13:32:12.620Z,2.00
2018-08-25T13:34:39.761Z,2.50
2018-08-25T13:37:06.934Z,2.47
2018-08-25T13:39:34.065Z,2.50
2018-08-25T13:42:01.220Z,2.40
2018-08-25T13:44:28.344Z,2.60
2018-08-25T13:46:55.492Z,2.50
2018-08-25T13:49:22.644Z,2.30
2018-08-25T13:51:49.823Z,2.60
2018-08-25T13:54:16.941Z,2.57
2018-08-25T13:56:44.560Z,2.57
2018-08-25T13:59:11.688Z,2.80
2018-08-25T14:01:38.870Z,2.73
2018-08-25T14:04:06.088Z,2.67
2018-08-25T14:06:33.299Z,2.53
2018-08-25T14:09:00.462Z,2.83
2018-08-25T14:11:27.846Z,2.40
2018-08-25T14:13:55.029Z,2.60
2018-08-25T14:16:22.269Z,2.50
2018-08-25T14:18:49.951Z,2.37
2018-08-25T14:21:17.065Z,3.27
2018-08-25T14:23:44.201Z,2.17
2018-08-25T14:26:11.431Z,1.90
2018-08-25T14:28:38.568Z,1.80
2018-08-25T14:31:06.156Z,2.10
2018-08-25T14:33:33.272Z,1.83
2018-08-25T14:36:00.439Z,2.13
2018-08-25T14:38:27.551Z,2.13
2018-08-25T14:40:54.732Z,2.17
2018-08-25T14:43:21.896Z,2.33
2018-08-25T14:45:49.048Z,1.87
2018-08-25T14:48:16.185Z,1.90
2018-08-25T14:50:43.593Z,2.17
2018-08-25T14:53:11.857Z,2.37
2018-08-25T14:55:39.014Z,2.40
2018-08-25T14:58:06.300Z,2.20
2018-08-25T15:00:33.586Z,2.37
2018-08-25T15:03:00.559Z,2.80
2018-08-25T15:05:27.833Z,2.40
2018-08-25T15:07:55.030Z,2.97
2018-08-25T15:10:22.208Z,2.93
2018-08-25T15:12:49.341Z,2.80
2018-08-25T15:15:16.489Z,3.10
2018-08-25T15:17:43.625Z,2.40
2018-08-25T15:20:10.759Z,2.10
2018-08-25T15:22:37.884Z,1.80
2018-08-25T15:25:05.061Z,1.53
2018-08-25T15:27:32.177Z,1.63
2018-08-25T15:29:59.328Z,1.57
2018-08-25T15:32:26.517Z,1.83
2018-08-25T15:34:53.685Z,1.90
2018-08-25T15:37:21.058Z,2.00
2018-08-25T15:39:48.196Z,1.93
2018-08-25T15:42:15.340Z,2.10
2018-08-25T15:44:42.519Z,2.50
2018-08-25T15:47:09.657Z,2.40
2018-08-25T15:49:36.805Z,2.47
2018-08-25T15:52:04.030Z,2.27
2018-08-25T15:54:31.101Z,2.30
2018-08-25T15:56:58.242Z,2.50
2018-08-25T15:59:25.459Z,1.87
2018-08-25T16:01:52.739Z,2.40
2018-08-25T16:04:19.873Z,2.60
2018-08-25T16:06:47.025Z,2.43
2018-08-25T16:09:14.150Z,2.40
2018-08-25T16:11:41.298Z,2.80
2018-08-25T16:14:08.414Z,2.57
2018-08-25T16:16:35.561Z,2.57
2018-08-25T16:19:02.849Z,2.47
2018-08-25T16:21:29.985Z,2.53
2018-08-25T16:23:57.290Z,2.33
2018-08-25T16:26:24.405Z,2.60
2018-08-25T16:28:51.552Z,2.23
2018-08-25T16:31:18.790Z,2.20
2018-08-25T16:33:45.929Z,2.30
2018-08-25T16:36:13.057Z,1.90
2018-08-25T16:38:40.228Z,2.97
2018-08-25T16:41:07.381Z,2.47
2018-08-25T16:43:34.509Z,2.03
2018-08-25T16:46:01.685Z,2.80
2018-08-25T16:48:28.824Z,2.83
2018-08-25T16:50:55.961Z,2.30
2018-08-25T16:53:23.093Z,2.30
2018-08-25T16:55:50.311Z,2.30
2018-08-25T16:58:17.417Z,2.30
2018-08-25T17:00:44.640Z,2.00
2018-08-25T17:03:11.777Z,2.43
2018-08-25T17:05:38.920Z,1.80
2018-08-25T17:08:06.109Z,1.80
2018-08-25T17:10:33.308Z,2.07
2018-08-25T17:13:00.571Z,1.70
2018-08-25T17:15:28.320Z,1.90
2018-08-25T17:17:55.612Z,1.70
2018-08-25T17:20:22.750Z,1.73
2018-08-25T17:22:49.911Z,1.90
2018-08-25T17:25:17.060Z,1.30
2018-08-25T17:27:44.214Z,1.63
2018-08-25T17:30:11.340Z,1.40
2018-08-25T17:32:38.546Z,1.40
2018-08-25T17:35:05.717Z,1.70
2018-08-25T17:37:32.848Z,1.73
2018-08-25T17:39:59.985Z,1.50
2018-08-25T17:42:27.396Z,1.70
2018-08-25T17:44:54.567Z,1.80
2018-08-25T17:47:21.677Z,1.60
2018-08-25T17:49:48.816Z,1.80
2018-08-25T17:52:16.065Z,1.57
2018-08-25T17:54:43.195Z,1.70
2018-08-25T17:57:10.375Z,1.80
2018-08-25T17:59:37.481Z,1.70
2018-08-25T18:02:04.626Z,2.20
2018-08-25T18:04:31.780Z,1.70
2018-08-25T18:06:59.127Z,1.60
2018-08-25T18:09:26.340Z,1.53
2018-08-25T18:11:53.468Z,1.73
2018-08-25T18:14:20.728Z,1.87
2018-08-25T18:16:47.966Z,1.77
2018-08-25T18:19:15.117Z,1.80
2018-08-25T18:21:42.269Z,1.57
2018-08-25T18:24:09.525Z,1.73
2018-08-25T18:26:36.656Z,1.67
2018-08-25T18:29:03.812Z,1.90
2018-08-25T18:31:30.949Z,3.00
2018-08-25T18:33:58.133Z,6.60
2018-08-25T18:36:25.336Z,11.37
2018-08-25T18:38:52.605Z,10.93
2018-08-25T18:41:20.448Z,8.27
2018-08-25T18:43:47.584Z,5.83
2018-08-25T18:46:15.111Z,4.10
2018-08-25T18:48:42.441Z,3.00
2018-08-25T18:51:09.512Z,2.20
2018-08-25T18:53:36.665Z,2.50
2018-08-25T18:56:03.783Z,2.33
2018-08-25T18:58:30.923Z,2.30
2018-08-25T19:00:58.153Z,2.43
2018-08-25T19:03:25.300Z,2.30
2018-08-25T19:05:52.708Z,2.30
2018-08-25T19:08:19.847Z,2.23
2018-08-25T19:10:46.976Z,1.87
2018-08-25T19:13:14.183Z,2.00
2018-08-25T19:15:41.363Z,2.20
2018-08-25T19:18:08.484Z,2.70
2018-08-25T19:20:35.839Z,2.30
2018-08-25T19:23:02.973Z,2.70
2018-08-25T19:25:30.157Z,1.83
2018-08-25T19:27:57.275Z,1.80
2018-08-25T19:30:24.422Z,1.87
2018-08-25T19:32:51.553Z,1.83
2018-08-25T19:35:18.724Z,1.80
2018-08-25T19:37:45.879Z,1.53
2018-08-25T19:40:13.012Z,1.73
2018-08-25T19:42:40.159Z,2.07
2018-08-25T19:45:07.320Z,1.77
2018-08-25T19:47:34.554Z,1.70
2018-08-25T19:50:01.673Z,1.87
2018-08-25T19:52:28.819Z,2.00
2018-08-25T19:54:55.976Z,1.60
2018-08-25T19:57:23.125Z,1.60
2018-08-25T19:59:50.292Z,1.83
2018-08-25T20:02:17.652Z,1.73
2018-08-25T20:04:44.896Z,1.90
2018-08-25T20:07:12.224Z,1.87
2018-08-25T20:09:39.361Z,1.80
2018-08-25T20:12:06.498Z,2.00
2018-08-25T20:14:33.675Z,1.70
2018-08-25T20:17:00.817Z,1.60
2018-08-25T20:19:27.948Z,1.70
2018-08-25T20:21:55.088Z,1.70
2018-08-25T20:24:22.297Z,1.63
2018-08-25T20:26:49.401Z,1.70
2018-08-25T20:29:16.539Z,1.73
2018-08-25T20:31:43.676Z,1.70
2018-08-25T20:34:10.812Z,1.97
2018-08-25T20:36:37.952Z,2.00
2018-08-25T20:39:06.399Z,1.87
2018-08-25T20:41:33.579Z,1.80
2018-08-25T20:44:00.732Z,1.70
2018-08-25T20:46:27.871Z,2.10
2018-08-25T20:48:55.004Z,1.70
2018-08-25T20:51:22.158Z,1.90
2018-08-25T20:53:49.589Z,2.70
2018-08-25T20:56:16.724Z,1.70
2018-08-25T20:58:43.906Z,1.80
2018-08-25T21:01:11.039Z,1.80
2018-08-25T21:03:38.308Z,1.70
2018-08-25T21:06:05.901Z,1.77
2018-08-25T21:08:33.045Z,1.90
2018-08-25T21:11:00.184Z,1.90
2018-08-25T21:13:27.404Z,2.03
2018-08-25T21:15:54.622Z,1.70
2018-08-25T21:18:21.663Z,2.10
2018-08-25T21:20:48.791Z,1.60
2018-08-25T21:23:16.721Z,1.70
2018-08-25T21:25:43.854Z,1.67
2018-08-25T21:28:10.971Z,1.70
2018-08-25T21:30:38.159Z,1.90
2018-08-25T21:33:05.281Z,1.80
2018-08-25T21:35:32.436Z,2.00
2018-08-25T21:37:59.580Z,1.77
2018-08-25T21:40:26.768Z,1.70
2018-08-25T21:42:53.901Z,1.70
2018-08-25T21:45:21.046Z,1.87
2018-08-25T21:47:48.186Z,2.10
2018-08-25T21:50:15.320Z,2.10
2018-08-25T21:52:42.444Z,2.40
2018-08-25T21:55:09.596Z,1.80
2018-08-25T21:57:36.729Z,1.80
2018-08-25T22:00:04.574Z,1.80
2018-08-25T22:02:31.721Z,1.80
2018-08-25T22:04:58.852Z,2.40
2018-08-25T22:07:25.992Z,2.00
2018-08-25T22:09:53.117Z,2.00
2018-08-25T22:12:20.257Z,1.80
2018-08-25T22:14:47.385Z,1.90
2018-08-25T22:17:14.552Z,1.97
2018-08-25T22:19:41.680Z,1.90
2018-08-25T22:22:08.819Z,1.87
2018-08-25T22:24:35.961Z,1.80
2018-08-25T22:27:03.173Z,2.00
2018-08-25T22:29:30.253Z,1.53
2018-08-25T22:31:57.384Z,2.00
2018-08-25T22:34:24.517Z,2.03
2018-08-25T22:36:51.665Z,2.10
2018-08-25T22:39:18.801Z,2.37
2018-08-25T22:41:45.953Z,2.03
2018-08-25T22:44:13.097Z,2.10
2018-08-25T22:46:40.229Z,1.97
2018-08-25T22:49:07.977Z,2.23
2018-08-25T22:51:35.169Z,2.30
2018-08-25T22:54:02.296Z,2.07
2018-08-25T22:56:29.538Z,2.23
2018-08-25T22:58:56.756Z,2.07
2018-08-25T23:01:23.934Z,1.90
2018-08-25T23:03:51.360Z,2.37
2018-08-25T23:06:18.523Z,2.50
2018-08-25T23:08:45.684Z,2.07
2018-08-25T23:11:12.828Z,2.30
2018-08-25T23:13:40.021Z,2.60
2018-08-25T23:16:07.196Z,2.13
2018-08-25T23:18:34.325Z,2.50
2018-08-25T23:21:01.457Z,2.60
2018-08-25T23:23:28.597Z,2.10
2018-08-25T23:25:55.725Z,2.60
2018-08-25T23:28:22.871Z,2.50
2018-08-25T23:30:49.996Z,2.33
2018-08-25T23:33:17.438Z,2.60
2018-08-25T23:35:44.590Z,2.37
2018-08-25T23:38:11.793Z,2.13
2018-08-25T23:40:38.957Z,2.60
2018-08-25T23:43:06.085Z,2.40
2018-08-25T23:45:33.227Z,2.47
2018-08-25T23:48:00.387Z,2.60
2018-08-25T23:50:27.524Z,2.20
2018-08-25T23:52:54.659Z,2.50
2018-08-25T23:55:21.801Z,2.40
2018-08-25T23:57:48.928Z,2.20
